Time;durP1;ratioP1;P1;durP2;ratioP2;P2;SDS_P1;SDS_P2;PMS_P1;PMS_P2;Temp;Humidity;BMP_temperature;BMP_pressure;BME280_temperature;BME280_humidity;BME280_pressure;Samples;Min_cycle;Max_cycle;Signal;HPM_P1;HPM_P2
2023/06/11 00:02:02;;;;;;;0.10;0.10;;;;;;;15.63;79.14;97624.34;5029039;28;20087;-72
2023/06/11 00:04:34;;;;;;;0.10;0.10;;;;;;;15.51;79.61;97626.91;5027522;28;20466;-72
2023/06/11 00:07:05;;;;;;;;;;;;;;;15.66;78.97;97630.09;5024974;28;20041;-71
2023/06/11 00:09:34;;;;;;;;;;;;;;;15.51;79.37;97624.22;5023841;28;20020;-71
2023/06/11 00:12:02;;;;;;;0.10;0.10;;;;;;;15.51;79.18;97626.91;5028366;28;19921;-71
2023/06/11 00:14:29;;;;;;;0.20;0.20;;;;;;;15.33;80.07;97629.63;5023516;28;20436;-72
2023/06/11 00:16:57;;;;;;;0.10;0.10;;;;;;;15.40;79.46;97625.81;5030924;28;20525;-72
2023/06/11 00:19:28;;;;;;;0.10;0.10;;;;;;;15.48;78.53;97631.91;5030130;28;20141;-71
2023/06/11 00:21:56;;;;;;;0.10;0.10;;;;;;;15.48;78.82;97630.06;5029053;28;20060;-71
2023/06/11 00:24:24;;;;;;;0.10;0.10;;;;;;;15.37;78.77;97631.63;5026984;28;20061;-71
2023/06/11 00:26:53;;;;;;;0.10;0.10;;;;;;;15.33;78.83;97632.31;5035801;28;20108;-71
2023/06/11 00:29:21;;;;;;;0.15;0.15;;;;;;;15.13;79.52;97643.28;5031573;28;20117;-71
2023/06/11 00:31:48;;;;;;;0.17;0.17;;;;;;;14.97;80.14;97639.28;5034959;28;20071;-71
2023/06/11 00:34:16;;;;;;;0.10;0.10;;;;;;;15.04;79.99;97648.13;5030676;28;20065;-72
2023/06/11 00:36:44;;;;;;;0.30;0.30;;;;;;;14.94;80.04;97641.59;5033370;28;20048;-73
2023/06/11 00:39:12;;;;;;;0.10;0.10;;;;;;;14.87;79.90;97646.19;5030179;28;20184;-73
2023/06/11 00:41:45;;;;;;;0.10;0.10;;;;;;;14.82;80.12;97641.50;5034016;28;20045;-73
2023/06/11 00:44:17;;;;;;;0.15;0.15;;;;;;;14.86;80.07;97641.88;5024436;28;20041;-73
2023/06/11 00:46:47;;;;;;;0.10;0.10;;;;;;;14.87;79.85;97638.97;5035073;28;20053;-73
2023/06/11 00:49:15;;;;;;;0.10;0.10;;;;;;;14.69;80.55;97642.44;5031426;28;20552;-73
2023/06/11 00:51:44;;;;;;;0.10;0.10;;;;;;;14.48;81.45;97642.81;5035266;28;20043;-72
2023/06/11 00:54:13;;;;;;;0.10;0.10;;;;;;;14.76;80.27;97641.53;5029781;28;20038;-72
2023/06/11 00:56:41;;;;;;;0.10;0.10;;;;;;;14.38;81.58;97646.97;5026111;28;20045;-72
2023/06/11 00:59:09;;;;;;;0.10;0.10;;;;;;;14.66;80.39;97644.72;5014544;28;20068;-73
2023/06/11 01:01:43;;;;;;;0.20;0.20;;;;;;;14.82;79.56;97643.38;5029938;28;20042;-72
2023/06/11 01:04:13;;;;;;;0.10;0.10;;;;;;;14.82;79.29;97638.00;5029825;28;20049;-72
2023/06/11 01:06:46;;;;;;;0.10;0.10;;;;;;;14.84;79.28;97647.47;5028914;28;20040;-73
2023/06/11 01:09:13;;;;;;;;;;;;;;;14.59;80.07;97643.97;5011356;28;20065;-73
2023/06/11 01:11:41;;;;;;;0.20;0.20;;;;;;;14.53;80.25;97640.31;5026742;28;19928;-73
2023/06/11 01:14:13;;;;;;;0.10;0.10;;;;;;;14.56;80.26;97645.22;5029375;28;20394;-73
2023/06/11 01:16:46;;;;;;;0.20;0.20;;;;;;;14.68;79.56;97648.84;5030175;28;20045;-72
2023/06/11 01:19:31;;;;;;;0.10;0.10;;;;;;;14.57;79.59;97651.41;5013842;28;20125;-72
2023/06/11 01:22:03;;;;;;;0.10;0.10;;;;;;;14.52;79.80;97651.25;5025488;28;20053;-73
2023/06/11 01:24:40;;;;;;;0.10;0.10;;;;;;;14.58;79.51;97647.69;5010861;28;20038;-73
2023/06/11 01:27:12;;;;;;;0.00;0.00;;;;;;;14.49;80.04;97654.38;5029246;28;20073;-73
2023/06/11 01:29:45;;;;;;;0.10;0.10;;;;;;;14.48;79.98;97652.72;5015006;28;20091;-73
2023/06/11 01:32:14;;;;;;;0.10;0.10;;;;;;;14.49;79.71;97659.75;5015889;28;20045;-73
2023/06/11 01:34:42;;;;;;;0.10;0.10;;;;;;;14.50;79.93;97661.41;5013773;28;20416;-73
2023/06/11 01:37:15;;;;;;;0.00;0.00;;;;;;;14.46;79.86;97654.81;5016402;28;20445;-73
2023/06/11 01:39:47;;;;;;;0.10;0.10;;;;;;;14.43;79.86;97660.63;5012910;28;20037;-72
2023/06/11 01:42:26;;;;;;;0.10;0.10;;;;;;;14.37;80.22;97659.59;5016255;28;20049;-72
2023/06/11 01:44:55;;;;;;;0.20;0.20;;;;;;;14.27;80.46;97657.38;5011090;28;20409;-72
2023/06/11 01:47:23;;;;;;;0.17;0.17;;;;;;;14.12;81.33;97666.78;5034825;28;20405;-73
2023/06/11 01:49:51;;;;;;;0.10;0.10;;;;;;;14.10;81.30;97666.16;5024469;28;20497;-73
2023/06/11 01:52:18;;;;;;;0.20;0.20;;;;;;;14.30;80.15;97667.69;5028285;28;20052;-73
2023/06/11 01:54:46;;;;;;;0.20;0.20;;;;;;;14.27;79.71;97665.44;5014450;28;20092;-74
2023/06/11 01:57:14;;;;;;;0.20;0.20;;;;;;;14.14;79.43;97665.50;5007297;28;20136;-73
2023/06/11 01:59:42;;;;;;;0.10;0.10;;;;;;;14.19;78.77;97671.06;5008247;28;20497;-73
2023/06/11 02:02:11;;;;;;;0.10;0.10;;;;;;;14.17;79.01;97666.94;5018708;28;20128;-73
2023/06/11 02:04:38;;;;;;;0.10;0.10;;;;;;;14.45;78.09;97663.91;5012114;28;20041;-73
2023/06/11 02:07:06;;;;;;;0.10;0.10;;;;;;;14.37;78.04;97674.88;5008800;28;20072;-73
2023/06/11 02:09:34;;;;;;;0.10;0.10;;;;;;;14.37;78.21;97672.19;5009827;28;20044;-73
2023/06/11 02:12:02;;;;;;;0.10;0.10;;;;;;;14.24;78.27;97670.41;5027973;28;20049;-73
2023/06/11 02:14:29;;;;;;;0.10;0.10;;;;;;;14.10;79.02;97672.34;5027147;28;20041;-73
2023/06/11 02:16:57;;;;;;;0.10;0.10;;;;;;;14.13;78.88;97674.59;5026579;28;20160;-74
2023/06/11 02:19:34;;;;;;;0.15;0.15;;;;;;;13.99;79.08;97681.09;5011560;28;20042;-72
2023/06/11 02:22:02;;;;;;;0.17;0.17;;;;;;;13.86;79.68;97679.28;5028259;28;20033;-73
2023/06/11 02:24:29;;;;;;;0.20;0.20;;;;;;;13.84;79.61;97672.47;5029191;28;20408;-74
2023/06/11 02:26:57;;;;;;;0.10;0.10;;;;;;;13.71;80.49;97672.53;5033106;28;20045;-74
2023/06/11 02:29:25;;;;;;;0.20;0.20;;;;;;;13.92;79.38;97677.59;5011624;28;20124;-72
2023/06/11 02:31:52;;;;;;;0.10;0.10;;;;;;;14.11;78.51;97671.31;5005862;28;20045;-72
2023/06/11 02:34:20;;;;;;;0.20;0.20;;;;;;;14.18;77.92;97674.78;5009199;28;20044;-74
2023/06/11 02:36:50;;;;;;;0.20;0.20;;;;;;;14.19;77.27;97675.59;5016539;28;20124;-72
2023/06/11 02:39:18;;;;;;;0.10;0.10;;;;;;;14.11;77.42;97679.38;5012479;28;20052;-72
2023/06/11 02:41:45;;;;;;;0.10;0.10;;;;;;;13.92;78.32;97685.63;5033094;28;20045;-72
2023/06/11 02:44:13;;;;;;;0.20;0.20;;;;;;;13.89;78.78;97684.22;5012850;28;20041;-75
2023/06/11 02:46:40;;;;;;;0.13;0.13;;;;;;;13.93;78.82;97679.25;5030562;28;20098;-72
2023/06/11 02:49:08;;;;;;;0.13;0.13;;;;;;;13.79;79.13;97675.00;5028284;28;20114;-74
2023/06/11 02:51:36;;;;;;;0.20;0.20;;;;;;;13.66;79.57;97688.44;5012351;28;20140;-72
2023/06/11 02:54:06;;;;;;;0.10;0.10;;;;;;;13.68;79.44;97686.38;5028761;28;20048;-71
2023/06/11 02:56:34;;;;;;;0.10;0.10;;;;;;;13.60;79.70;97690.09;5023227;28;20045;-71
2023/06/11 02:59:01;;;;;;;0.10;0.10;;;;;;;13.51;80.06;97689.50;5022756;28;20069;-76
2023/06/11 03:01:30;;;;;;;0.20;0.20;;;;;;;13.65;79.02;97692.97;5014887;28;20048;-72
2023/06/11 03:03:57;;;;;;;0.10;0.10;;;;;;;13.62;79.01;97687.22;5030221;28;20053;-72
2023/06/11 03:06:29;;;;;;;0.10;0.10;;;;;;;13.51;79.47;97697.56;5012769;28;20045;-74
2023/06/11 03:08:56;;;;;;;0.13;0.13;;;;;;;13.65;78.42;97692.97;4999836;28;20050;-71
2023/06/11 03:11:26;;;;;;;0.30;0.30;;;;;;;13.58;78.79;97695.69;5005349;28;20097;-71
2023/06/11 03:13:53;;;;;;;0.10;0.10;;;;;;;13.62;78.53;97696.06;5011663;28;20048;-74
2023/06/11 03:16:21;;;;;;;0.10;0.10;;;;;;;13.44;79.07;97701.28;5030765;28;20045;-72
2023/06/11 03:18:48;;;;;;;0.13;0.10;;;;;;;13.35;79.14;97699.88;5029506;28;20053;-74
2023/06/11 03:21:16;;;;;;;0.10;0.10;;;;;;;13.26;79.75;97699.28;5006395;28;20530;-71
2023/06/11 03:23:44;;;;;;;0.20;0.20;;;;;;;13.31;79.51;97704.00;5030368;28;20038;-74
2023/06/11 03:26:12;;;;;;;0.13;0.13;;;;;;;13.37;79.11;97701.31;5012269;28;20073;-73
2023/06/11 03:28:45;;;;;;;0.00;0.00;;;;;;;13.34;79.43;97699.06;5013947;28;20046;-73
2023/06/11 03:31:13;;;;;;;0.20;0.20;;;;;;;13.23;79.81;97697.84;5025179;28;20113;-71
2023/06/11 03:33:43;;;;;;;0.10;0.10;;;;;;;13.16;80.08;97702.38;5007729;28;20140;-72
2023/06/11 03:36:11;;;;;;;0.10;0.10;;;;;;;13.07;80.36;97698.25;5004746;28;20425;-71
2023/06/11 03:38:39;;;;;;;0.20;0.20;;;;;;;13.07;80.42;97700.94;5007726;28;20059;-72
2023/06/11 03:41:10;;;;;;;0.20;0.20;;;;;;;13.01;80.22;97695.56;5012873;28;20128;-74
2023/06/11 03:43:39;;;;;;;0.20;0.20;;;;;;;12.98;80.47;97704.03;5011029;28;20099;-73
2023/06/11 03:46:08;;;;;;;0.20;0.20;;;;;;;12.96;80.67;97703.41;5011559;28;20103;-74
2023/06/11 03:48:35;;;;;;;0.10;0.10;;;;;;;13.05;80.14;97699.47;5024155;28;20049;-73
2023/06/11 03:51:03;;;;;;;0.10;0.10;;;;;;;13.11;79.92;97701.31;5010769;28;20065;-73
2023/06/11 03:53:32;;;;;;;0.17;0.17;;;;;;;13.08;79.85;97704.44;5027743;28;20033;-73
2023/06/11 03:56:00;;;;;;;0.15;0.15;;;;;;;12.97;80.03;97702.38;5031992;28;20563;-74
2023/06/11 03:58:27;;;;;;;0.10;0.10;;;;;;;12.88;80.24;97699.06;5004100;28;20042;-72
2023/06/11 04:00:55;;;;;;;0.10;0.10;;;;;;;12.84;80.10;97695.97;5014636;28;20124;-72
2023/06/11 04:03:24;;;;;;;0.15;0.15;;;;;;;12.86;80.33;97706.50;5027688;28;20485;-74
2023/06/11 04:05:52;;;;;;;0.10;0.10;;;;;;;12.89;80.29;97695.34;5015863;28;20049;-74
2023/06/11 04:08:20;;;;;;;0.20;0.20;;;;;;;12.78;80.55;97699.47;5018759;28;20037;-73
2023/06/11 04:10:47;;;;;;;0.20;0.20;;;;;;;12.88;80.50;97705.25;5010491;28;20041;-74
2023/06/11 04:13:15;;;;;;;0.20;0.20;;;;;;;13.04;79.60;97698.66;5013950;28;20045;-74
2023/06/11 04:15:45;;;;;;;0.10;0.10;;;;;;;13.05;79.75;97691.44;5010999;28;20127;-72
2023/06/11 04:18:13;;;;;;;0.10;0.10;;;;;;;13.11;79.70;97694.09;5011673;28;20528;-73
2023/06/11 04:20:42;;;;;;;0.10;0.10;;;;;;;13.13;79.97;97696.56;5012087;28;20037;-72
2023/06/11 04:23:11;;;;;;;0.20;0.20;;;;;;;13.15;80.17;97695.38;5016254;28;20050;-74
2023/06/11 04:25:39;;;;;;;0.13;0.13;;;;;;;13.19;80.00;97707.31;5013089;28;20616;-73
2023/06/11 04:28:09;;;;;;;0.20;0.20;;;;;;;13.15;80.13;97705.28;5017159;28;20140;-73
2023/06/11 04:30:39;;;;;;;0.10;0.10;;;;;;;13.00;80.90;97701.94;5010031;28;20698;-72
2023/06/11 04:33:07;;;;;;;0.10;0.10;;;;;;;13.06;80.63;97699.28;5016951;28;20038;-72
2023/06/11 04:35:37;;;;;;;0.10;0.10;;;;;;;13.08;80.45;97707.13;5013510;28;20386;-71
2023/06/11 04:38:06;;;;;;;0.20;0.20;;;;;;;12.97;80.89;97702.38;5012988;28;20128;-71
2023/06/11 04:40:36;;;;;;;0.10;0.10;;;;;;;12.99;80.59;97705.66;5028155;28;20042;-71
2023/06/11 04:43:06;;;;;;;0.10;0.10;;;;;;;13.02;80.71;97699.88;5018361;28;20137;-72
2023/06/11 04:45:34;;;;;;;0.20;0.20;;;;;;;13.15;80.46;97700.75;5013089;28;20045;-71
2023/06/11 04:48:04;;;;;;;0.10;0.10;;;;;;;13.10;80.89;97707.69;5017874;28;20520;-71
2023/06/11 04:50:36;;;;;;;0.17;0.17;;;;;;;13.21;81.04;97702.56;5011733;28;20053;-72
2023/06/11 04:53:06;;;;;;;0.10;0.10;;;;;;;13.33;80.73;97707.31;5014160;28;20045;-72
2023/06/11 04:55:37;;;;;;;0.10;0.10;;;;;;;13.39;80.36;97706.47;5006541;28;20050;-70
2023/06/11 04:58:06;;;;;;;0.40;0.40;;;;;;;13.43;80.35;97702.31;5026673;28;20432;-73
2023/06/11 05:00:34;;;;;;;0.10;0.10;;;;;;;13.58;79.99;97706.44;5028730;28;20132;-73
2023/06/11 05:03:03;;;;;;;0.20;0.20;;;;;;;13.53;80.24;97708.06;5010817;28;20041;-71
2023/06/11 05:05:33;;;;;;;0.10;0.10;;;;;;;13.53;80.23;97702.72;5009916;28;20394;-73
2023/06/11 05:08:02;;;;;;;0.10;0.10;;;;;;;13.58;80.15;97700.22;5027653;28;20037;-74
2023/06/11 05:10:31;;;;;;;0.20;0.20;;;;;;;13.71;80.00;97708.22;5010436;28;20136;-71
2023/06/11 05:12:59;;;;;;;0.10;0.10;;;;;;;13.73;80.28;97705.31;5029666;28;20056;-74
2023/06/11 05:15:27;;;;;;;0.10;0.10;;;;;;;13.88;79.71;97709.41;5008341;28;20092;-70
2023/06/11 05:17:54;;;;;;;0.08;0.08;;;;;;;13.93;79.53;97708.75;5013877;28;20048;-73
2023/06/11 05:20:26;;;;;;;0.10;0.10;;;;;;;14.01;79.63;97705.03;5003552;28;20576;-71
2023/06/11 05:22:58;;;;;;;0.10;0.10;;;;;;;14.08;79.44;97698.59;5030368;28;20060;-72
2023/06/11 05:25:28;;;;;;;0.10;0.10;;;;;;;14.16;79.21;97698.34;5028932;28;20052;-71
2023/06/11 05:28:00;;;;;;;0.20;0.20;;;;;;;14.28;79.02;97701.97;5015007;28;20164;-71
2023/06/11 05:30:29;;;;;;;0.10;0.10;;;;;;;14.42;78.71;97707.31;5013007;28;20038;-73
2023/06/11 05:32:58;;;;;;;0.10;0.10;;;;;;;14.44;78.75;97702.53;5017324;28;20048;-71
2023/06/11 05:35:26;;;;;;;0.03;0.03;;;;;;;14.53;79.05;97701.25;5011405;28;20056;-71
2023/06/11 05:37:55;;;;;;;0.10;0.10;;;;;;;14.54;78.52;97708.25;5030721;28;20049;-71
2023/06/11 05:40:23;;;;;;;0.10;0.10;;;;;;;14.57;79.20;97697.06;5029194;28;20458;-71
2023/06/11 05:42:50;;;;;;;0.10;0.10;;;;;;;14.67;78.58;97708.16;5007675;28;20042;-73
2023/06/11 05:45:20;;;;;;;0.10;0.10;;;;;;;14.77;78.28;97711.19;5007165;28;20053;-71
2023/06/11 05:47:48;;;;;;;0.10;0.10;;;;;;;14.69;79.34;97725.72;5006245;28;20041;-71
2023/06/11 05:50:15;;;;;;;0.55;0.20;;;;;;;14.81;78.80;97722.34;5030229;28;20116;-70
2023/06/11 05:52:43;;;;;;;0.10;0.10;;;;;;;14.87;78.58;97727.66;5010783;28;20041;-71
2023/06/11 05:55:11;;;;;;;0.20;0.20;;;;;;;15.04;78.23;97727.94;5012348;28;20153;-71
2023/06/11 05:57:39;;;;;;;0.10;0.10;;;;;;;15.22;77.14;97728.00;5023730;28;20061;-71
2023/06/11 06:00:12;;;;;;;0.15;0.15;;;;;;;15.30;77.40;97726.88;5016231;28;20060;-72
2023/06/11 06:02:44;;;;;;;0.17;0.17;;;;;;;15.43;76.91;97730.28;5022870;28;20042;-71
2023/06/11 06:05:19;;;;;;;0.10;0.10;;;;;;;15.63;76.57;97719.34;5007094;28;20091;-71
2023/06/11 06:07:47;;;;;;;0.10;0.10;;;;;;;15.79;76.32;97721.41;5016560;28;20049;-70
2023/06/11 06:10:15;;;;;;;0.10;0.10;;;;;;;15.76;75.55;97719.19;5014348;28;20095;-71
2023/06/11 06:12:42;;;;;;;0.15;0.15;;;;;;;15.86;75.66;97710.59;5015646;28;20037;-71
2023/06/11 06:15:11;;;;;;;0.10;0.10;;;;;;;15.94;75.81;97715.66;5026451;28;20041;-71
2023/06/11 06:17:41;;;;;;;0.17;0.17;;;;;;;16.08;75.83;97716.34;5031547;28;20045;-72
2023/06/11 06:20:14;;;;;;;0.13;0.13;;;;;;;16.20;75.23;97717.19;5007973;28;20137;-71
2023/06/11 06:22:42;;;;;;;0.10;0.10;;;;;;;16.38;75.48;97724.44;5025857;28;20041;-71
2023/06/11 06:25:15;;;;;;;0.15;0.15;;;;;;;16.59;74.50;97721.22;5024701;28;20054;-72
2023/06/11 06:27:45;;;;;;;0.10;0.10;;;;;;;16.62;73.16;97714.56;5034222;28;20388;-72
2023/06/11 06:30:14;;;;;;;0.10;0.10;;;;;;;16.81;74.09;97714.28;5010768;28;20601;-71
2023/06/11 06:32:43;;;;;;;0.00;0.00;;;;;;;16.89;73.68;97707.72;5007880;28;20077;-73
2023/06/11 06:35:13;;;;;;;0.20;0.20;;;;;;;17.00;73.12;97717.72;5012999;28;20046;-72
2023/06/11 06:37:41;;;;;;;0.10;0.10;;;;;;;17.07;72.96;97720.28;5009593;28;20052;-72
2023/06/11 06:40:10;;;;;;;0.10;0.10;;;;;;;17.13;72.28;97716.69;5013662;28;20038;-72
2023/06/11 06:42:39;;;;;;;0.10;0.10;;;;;;;17.28;72.50;97711.63;5024852;28;20120;-73
2023/06/11 06:45:08;;;;;;;0.10;0.10;;;;;;;17.40;71.49;97709.75;5028729;28;20041;-73
2023/06/11 06:47:37;;;;;;;0.10;0.10;;;;;;;17.59;71.16;97699.66;5011144;28;20118;-72
2023/06/11 06:50:06;;;;;;;0.00;0.00;;;;;;;17.70;70.07;97714.22;5008715;28;20493;-72
2023/06/11 06:52:36;;;;;;;0.17;0.17;;;;;;;17.79;69.21;97719.03;5011919;28;20547;-71
2023/06/11 06:55:04;;;;;;;0.10;0.10;;;;;;;17.94;67.75;97710.44;5027635;28;20029;-71
2023/06/11 06:57:33;;;;;;;0.10;0.10;;;;;;;18.10;68.97;97711.53;5025451;28;20413;-72
2023/06/11 07:00:01;;;;;;;0.00;0.00;;;;;;;18.21;67.30;97713.41;5021688;28;20095;-72
2023/06/11 07:02:30;;;;;;;0.10;0.10;;;;;;;18.35;66.04;97706.66;5010800;28;20038;-72
2023/06/11 07:04:58;;;;;;;0.10;0.10;;;;;;;18.48;66.16;97705.56;5009417;28;20129;-72
2023/06/11 07:07:25;;;;;;;0.10;0.10;;;;;;;18.66;64.85;97708.88;5027128;28;20493;-71
2023/06/11 07:09:55;;;;;;;0.10;0.10;;;;;;;18.83;64.08;97705.38;5024196;28;20095;-71
2023/06/11 07:12:23;;;;;;;0.10;0.10;;;;;;;18.94;64.11;97702.59;5026807;28;20041;-72
2023/06/11 07:14:53;;;;;;;0.10;0.10;;;;;;;19.09;64.58;97710.16;5011077;28;20536;-72
2023/06/11 07:17:22;;;;;;;0.10;0.10;;;;;;;19.24;62.11;97702.25;5034234;28;20551;-71
2023/06/11 07:19:51;;;;;;;0.13;0.13;;;;;;;19.42;60.77;97710.13;5009891;28;20073;-73
2023/06/11 07:22:18;;;;;;;0.00;0.00;;;;;;;19.63;58.25;97711.25;5029664;28;20144;-71
2023/06/11 07:24:48;;;;;;;0.10;0.10;;;;;;;19.85;56.92;97703.16;5008546;28;20456;-72
2023/06/11 07:27:19;;;;;;;0.10;0.10;;;;;;;20.11;53.30;97702.44;5015950;28;20041;-72
2023/06/11 07:29:49;;;;;;;0.10;0.10;;;;;;;20.33;53.97;97707.00;5011000;28;20044;-74
2023/06/11 07:32:16;;;;;;;0.10;0.10;;;;;;;20.51;53.30;97703.97;5015239;28;20493;-71
2023/06/11 07:34:46;;;;;;;0.00;0.00;;;;;;;20.72;51.06;97703.09;5027094;28;20124;-76
2023/06/11 07:37:14;;;;;;;0.10;0.10;;;;;;;20.96;50.42;97705.50;5013833;28;20049;-73
2023/06/11 07:39:42;;;;;;;0.03;0.03;;;;;;;21.14;46.84;97694.25;5020333;28;20052;-72
2023/06/11 07:42:10;;;;;;;0.10;0.10;;;;;;;21.35;48.44;97706.94;5007969;28;20046;-72
2023/06/11 07:44:39;;;;;;;0.00;0.00;;;;;;;21.60;45.79;97704.34;5024715;28;20173;-72
2023/06/11 07:47:07;;;;;;;0.10;0.10;;;;;;;21.76;45.27;97696.31;5004725;28;20046;-72
2023/06/11 07:49:35;;;;;;;0.10;0.10;;;;;;;21.91;45.74;97699.09;5028856;28;20097;-72
2023/06/11 07:52:03;;;;;;;0.10;0.10;;;;;;;22.07;44.27;97695.41;5022663;28;20037;-72
2023/06/11 07:54:31;;;;;;;0.10;0.10;;;;;;;22.22;45.15;97690.00;5026485;28;20072;-72
2023/06/11 07:56:58;;;;;;;0.13;0.10;;;;;;;22.42;44.62;97689.28;5029475;28;20037;-71
2023/06/11 07:59:26;;;;;;;0.10;0.10;;;;;;;22.47;45.84;97693.91;5030934;28;20064;-72
2023/06/11 08:01:55;;;;;;;0.10;0.10;;;;;;;22.69;44.23;97692.59;5027634;28;20046;-72
2023/06/11 08:04:23;;;;;;;0.20;0.20;;;;;;;22.86;42.57;97684.19;5025799;28;20412;-72
2023/06/11 08:06:50;;;;;;;0.10;0.10;;;;;;;23.03;41.80;97683.94;5022828;28;20051;-71
2023/06/11 08:09:18;;;;;;;0.10;0.10;;;;;;;23.23;43.65;97683.94;5030380;28;20041;-72
2023/06/11 08:11:46;;;;;;;0.00;0.00;;;;;;;23.45;42.31;97677.38;5029732;28;20232;-72
2023/06/11 08:14:13;;;;;;;0.05;0.05;;;;;;;23.65;41.19;97670.00;5028356;28;20496;-72
2023/06/11 08:16:41;;;;;;;0.10;0.10;;;;;;;23.83;39.55;97678.66;5024010;28;20041;-72
2023/06/11 08:19:10;;;;;;;0.10;0.10;;;;;;;24.06;40.08;97680.75;5029096;28;20103;-74
2023/06/11 08:21:37;;;;;;;0.00;0.00;;;;;;;24.21;37.78;97679.84;5028347;28;20359;-73
2023/06/11 08:24:06;;;;;;;0.10;0.10;;;;;;;24.34;37.87;97674.66;5023453;28;20485;-72
2023/06/11 08:26:34;;;;;;;0.15;0.10;;;;;;;24.54;36.75;97672.91;5033526;28;20140;-72
2023/06/11 08:29:02;;;;;;;0.00;0.00;;;;;;;24.68;36.92;97674.72;5026905;28;20087;-74
2023/06/11 08:31:29;;;;;;;0.10;0.10;;;;;;;24.73;35.48;97671.94;5025537;28;20088;-73
2023/06/11 08:33:57;;;;;;;0.05;0.05;;;;;;;24.93;34.52;97675.66;5010114;28;20052;-73
2023/06/11 08:36:27;;;;;;;0.00;0.00;;;;;;;25.05;33.64;97678.84;5027687;28;20037;-72
2023/06/11 08:38:54;;;;;;;0.10;0.10;;;;;;;25.14;32.18;97674.38;5026342;28;20128;-73
2023/06/11 08:41:23;;;;;;;0.10;0.03;;;;;;;25.23;33.71;97661.72;5031005;28;20045;-73
2023/06/11 08:43:50;;;;;;;0.10;0.10;;;;;;;25.38;34.05;97672.53;5030435;28;20033;-74
2023/06/11 08:46:20;;;;;;;0.10;0.10;;;;;;;25.47;32.66;97662.59;5031881;28;20045;-74
2023/06/11 08:48:55;;;;;;;0.00;0.00;;;;;;;25.57;31.80;97665.22;5025232;28;20052;-73
2023/06/11 08:51:25;;;;;;;0.00;0.00;;;;;;;25.74;30.98;97661.28;5030812;28;20053;-73
2023/06/11 08:53:53;;;;;;;0.10;0.10;;;;;;;25.83;30.75;97656.78;5029059;28;20048;-73
2023/06/11 08:56:21;;;;;;;0.10;0.10;;;;;;;25.95;30.75;97668.13;5014893;28;20045;-72
2023/06/11 08:58:48;;;;;;;0.00;0.00;;;;;;;26.05;30.06;97667.19;5032464;28;20065;-72
2023/06/11 09:01:16;;;;;;;0.00;0.00;;;;;;;26.13;30.41;97672.81;5036192;28;20057;-72
2023/06/11 09:03:44;;;;;;;0.10;0.10;;;;;;;26.20;30.35;97665.06;5029508;28;20076;-72
2023/06/11 09:06:11;;;;;;;0.00;0.00;;;;;;;26.13;30.28;97663.81;5026858;28;20040;-72
2023/06/11 09:08:40;;;;;;;0.00;0.00;;;;;;;26.19;29.89;97666.16;5037293;28;20141;-72
2023/06/11 09:11:08;;;;;;;0.08;0.08;;;;;;;26.26;30.11;97665.81;5029337;28;20473;-72
2023/06/11 09:13:35;;;;;;;0.00;0.00;;;;;;;26.22;30.39;97662.03;5032226;28;20501;-72
2023/06/11 09:16:03;;;;;;;0.10;0.10;;;;;;;26.34;30.04;97667.13;5031264;28;20041;-72
2023/06/11 09:18:30;;;;;;;0.00;0.00;;;;;;;26.38;30.16;97662.66;5030824;28;20477;-72
2023/06/11 09:21:00;;;;;;;0.00;0.00;;;;;;;26.54;30.73;97662.16;5024802;28;20056;-72
2023/06/11 09:23:28;;;;;;;0.10;0.08;;;;;;;26.71;29.23;97667.13;5027067;28;20043;-72
2023/06/11 09:26:00;;;;;;;0.00;0.00;;;;;;;26.82;29.16;97665.03;5026956;28;20041;-72
2023/06/11 09:28:29;;;;;;;0.00;0.00;;;;;;;26.88;28.74;97669.34;5020537;28;20116;-71
2023/06/11 09:30:57;;;;;;;0.00;0.00;;;;;;;26.93;28.21;97659.13;5029024;28;20582;-72
2023/06/11 09:33:25;;;;;;;0.00;0.00;;;;;;;26.97;28.51;97665.66;5033525;28;20037;-72
2023/06/11 09:35:53;;;;;;;0.00;0.00;;;;;;;26.96;27.92;97652.25;5023301;28;20042;-72
2023/06/11 09:38:22;;;;;;;0.00;0.00;;;;;;;27.13;28.03;97665.38;5017800;28;20060;-72
2023/06/11 09:40:50;;;;;;;0.00;0.00;;;;;;;27.07;27.23;97661.94;5025630;28;20048;-72
2023/06/11 09:43:21;;;;;;;0.03;0.00;;;;;;;27.18;27.70;97668.88;5033450;28;20045;-73
2023/06/11 09:45:52;;;;;;;0.00;0.00;;;;;;;27.26;27.18;97667.38;5027698;28;20041;-72
2023/06/11 09:48:21;;;;;;;0.00;0.00;;;;;;;27.33;27.38;97668.59;5027926;28;20033;-71
2023/06/11 09:50:50;;;;;;;0.00;0.00;;;;;;;27.42;27.44;97665.97;5025748;28;20033;-71
2023/06/11 09:53:19;;;;;;;0.00;0.00;;;;;;;27.32;27.21;97661.47;5030629;28;20044;-74
2023/06/11 09:55:48;;;;;;;0.00;0.00;;;;;;;27.44;26.76;97669.22;5025613;28;20041;-71
2023/06/11 09:58:37;;;;;;;0.05;0.00;;;;;;;27.52;26.64;97667.72;5010630;28;20111;-72
2023/06/11 10:01:05;;;;;;;0.00;0.00;;;;;;;27.72;26.43;97662.69;5024037;28;20041;-72
2023/06/11 10:03:34;;;;;;;0.00;0.00;;;;;;;27.69;26.39;97663.31;5027995;28;20047;-72
2023/06/11 10:06:05;;;;;;;0.00;0.00;;;;;;;27.81;26.61;97668.31;5024909;28;20049;-72
2023/06/11 10:08:35;;;;;;;0.10;0.10;;;;;;;27.88;26.74;97667.91;5031239;28;20047;-72
2023/06/11 10:11:03;;;;;;;0.03;0.03;;;;;;;27.88;27.17;97659.66;5029631;28;20413;-72
2023/06/11 10:13:32;;;;;;;0.00;0.00;;;;;;;28.01;26.29;97667.09;5032091;28;20091;-73
2023/06/11 10:16:02;;;;;;;0.00;0.00;;;;;;;27.88;26.61;97671.44;5020631;28;20205;-72
2023/06/11 10:18:30;;;;;;;0.00;0.00;;;;;;;28.02;26.24;97672.28;5034328;28;20064;-72
2023/06/11 10:21:00;;;;;;;0.00;0.00;;;;;;;28.18;26.42;97680.22;5028214;28;20041;-72
2023/06/11 10:23:35;;;;;;;0.00;0.00;;;;;;;27.96;25.79;97668.00;5031309;28;20037;-72
2023/06/11 10:26:03;;;;;;;0.10;0.03;;;;;;;28.09;26.11;97663.63;5026569;28;20450;-72
2023/06/11 10:28:37;;;;;;;0.00;0.00;;;;;;;27.88;26.72;97662.41;5032343;28;20049;-72
2023/06/11 10:31:06;;;;;;;0.00;0.00;;;;;;;28.12;26.47;97661.09;5021473;28;20057;-72
2023/06/11 10:33:46;;;;;;;0.00;0.00;;;;;;;28.06;26.53;97662.28;5021322;28;20038;-72
2023/06/11 10:36:23;;;;;;;0.00;0.00;;;;;;;27.50;26.48;97659.00;5027128;28;20046;-72
2023/06/11 10:38:52;;;;;;;0.00;0.00;;;;;;;27.76;26.98;97652.75;5019482;28;20133;-72
2023/06/11 10:41:28;;;;;;;0.00;0.00;;;;;;;27.91;27.39;97659.06;5028681;28;20109;-72
2023/06/11 10:43:57;;;;;;;0.00;0.00;;;;;;;28.03;27.16;97662.91;5023771;28;20038;-72
2023/06/11 10:46:26;;;;;;;0.00;0.00;;;;;;;27.67;27.80;97656.50;5027019;28;20052;-72
2023/06/11 10:48:55;;;;;;;0.03;0.03;;;;;;;27.74;27.79;97657.72;5025621;28;20137;-72
2023/06/11 10:51:22;;;;;;;0.00;0.00;;;;;;;27.85;27.89;97665.75;5029183;28;20038;-72
2023/06/11 10:53:58;;;;;;;0.00;0.00;;;;;;;27.92;27.48;97663.44;5026867;28;20041;-72
2023/06/11 10:56:26;;;;;;;0.00;0.00;;;;;;;27.99;27.72;97661.91;5028074;28;20060;-72
2023/06/11 10:58:55;;;;;;;0.00;0.00;;;;;;;28.01;27.84;97659.66;5024317;28;20100;-72
2023/06/11 11:01:23;;;;;;;0.00;0.00;;;;;;;28.07;27.91;97669.41;5027692;28;20060;-72
2023/06/11 11:03:53;;;;;;;0.00;0.00;;;;;;;27.92;28.26;97663.44;5031418;28;20045;-72
2023/06/11 11:06:28;;;;;;;0.00;0.00;;;;;;;27.80;28.62;97668.59;5027958;28;20041;-72
2023/06/11 11:08:56;;;;;;;0.00;0.00;;;;;;;27.55;28.88;97665.22;5029380;28;20057;-72
2023/06/11 11:11:24;;;;;;;0.00;0.00;;;;;;;27.48;29.05;97661.22;5030234;28;20041;-72
2023/06/11 11:13:52;;;;;;;0.03;0.03;;;;;;;27.58;29.55;97658.31;5029103;28;20049;-72
2023/06/11 11:16:20;;;;;;;0.00;0.00;;;;;;;27.73;29.64;97655.28;5031594;28;20124;-72
2023/06/11 11:18:48;;;;;;;0.00;0.00;;;;;;;27.76;29.03;97650.00;5022209;28;20235;-72
2023/06/11 11:21:18;;;;;;;0.00;0.00;;;;;;;28.11;28.34;97653.97;5023896;28;20049;-72
2023/06/11 11:23:47;;;;;;;0.00;0.00;;;;;;;28.26;27.46;97652.03;5029883;28;20043;-72
2023/06/11 11:26:17;;;;;;;0.00;0.00;;;;;;;28.57;27.83;97650.22;5028978;28;20100;-72
2023/06/11 11:28:45;;;;;;;0.00;0.00;;;;;;;28.62;27.30;97652.88;5040727;28;20055;-72
2023/06/11 11:31:14;;;;;;;0.00;0.00;;;;;;;28.56;27.45;97651.34;5024404;28;20045;-72
2023/06/11 11:33:42;;;;;;;0.00;0.00;;;;;;;28.53;27.33;97649.25;5027308;28;20085;-72
2023/06/11 11:36:12;;;;;;;0.10;0.10;;;;;;;28.48;28.12;97647.41;5024355;28;20041;-72
2023/06/11 11:38:41;;;;;;;0.00;0.00;;;;;;;28.32;27.97;97646.13;5028961;28;20045;-72
2023/06/11 11:41:09;;;;;;;0.00;0.00;;;;;;;28.18;28.54;97637.09;5022819;28;20528;-72
2023/06/11 11:43:38;;;;;;;0.00;0.00;;;;;;;27.95;28.65;97638.91;5025604;28;20096;-72